Historyczne dane pomiarowe

Dodano dane terminowe – wersja testowa.

Dane z okresu 1951-2019

Wersja bazy: 1.34 [2019-03-16, lista zmian], aktualizacja planowana na 2019-04-15

Dane meteo z obszaru Polski uzyskane na podstawie danych udostępnionych przez Instytut Meteorologii i Gospodarki Wodnej – Państwowy Instytut Badawczy.

 

Wybierz Datę:    

       

TemperaturaWilgotnośćZachmurzenieWiatrCiśnienieWidzialnośćZjawiska
 Data    tng td wb rh cc ccl cl cm ch dir g1 g2 mslp ppp      
1999-08-06 00:00:00 11.0--- 9.5 10.291wxwx0wx--1013.2 990.8 0.0---wx
1999-08-06 01:00:00 10.7--- 9.2 9.991wxwx0wx--1012.9 990.5----wx
1999-08-06 02:00:00 10.4--- 8.9 9.690wxwx0wx--1012.3 989.9----wx
1999-08-06 03:00:00 10.1--- 8.8 9.492wxwx0wx--1012.0 989.6----wx
1999-08-06 04:00:00 11.6--- 10.2 10.891wxwxwx0wx--1011.9 989.6----wx
1999-08-06 05:00:00 14.4--- 12.0 13.085wxwxwxwx0wx--1011.3 989.2----wx
1999-08-06 06:00:00 18.0--- 15.4 16.485wxwxwxwx1wx--1010.7 988.9 0.0---wx
1999-08-06 07:00:00 22.0--- 13.9 17.060wxwxwx2wx--1010.3 988.8----wx
1999-08-06 08:00:00 24.7--- 11.4 16.743wxwxwx3wx--1010.1 988.8----wx
1999-08-06 09:00:00 26.2--- 12.2 17.642wxwxwxwx3wx--1010.0 988.8----wx
1999-08-06 10:00:00 27.1--- 11.5 17.638wxwxwxwx3wx--1009.4 988.3----wx
1999-08-06 11:00:00 27.9--- 11.7 18.037wxwxwxwxwx2wx--1009.0 988.0----wx
1999-08-06 12:00:00 28.3--- 11.0 17.834wxwxwxwx4wx--1008.5 987.5 0.0---wx
1999-08-06 13:00:00 28.6--- 11.2 18.034wxwxwxwx4wx--1008.0 987.0----wx
1999-08-06 14:00:00 28.1--- 10.5 17.533wxwxwx3wx--1007.8 986.8----wx
1999-08-06 15:00:00 28.4--- 10.4 17.633wxwxwx3wx--1007.6 986.6----wx
1999-08-06 16:00:00 26.8--- 11.3 17.438wxwxwx2wx--1007.6 986.5----wx
1999-08-06 17:00:00 25.5--- 11.4 17.041wxwxwxwx2wx--1007.7 986.5----wx
1999-08-06 18:00:00 22.8--- 10.3 15.545wxwxwx1wx--1007.9 986.5 0.0---wx
1999-08-06 19:00:00 19.8--- 11.3 14.858wxwx0wx--1008.3 986.7----wx
1999-08-06 20:00:00 17.0--- 11.3 13.769wxwx0wx--1008.6 986.8----wx
1999-08-06 21:00:00 15.0--- 11.9 13.282wxwx0wx--1008.8 986.8----wx
1999-08-06 22:00:00 14.5--- 11.0 12.579wxwx0wx--1008.8 986.8----wx
1999-08-06 23:00:00 12.3--- 9.9 11.086wxwx0wx--1008.8 986.6----wx

 

Źródłem pochodzenia danych jest Instytut Meteorologii i Gospodarki Wodnej – Państwowy Instytut Badawczy. Dane Instytutu Meteorologii i Gospodarki Wodnej – Państwowego Instytutu Badawczego zostały przetworzone.

Dane źródłowe można odnaleźć na stronie https://dane.imgw.pl